sensor_id;sensor_type;location;lat;lon;timestamp;pressure;altitude;pressure_sealevel;temperature;humidity
70458;BME280;57919;56.194;95.716;2022-07-23T00:06:38;97514.63;;;20.88;71.44
70458;BME280;57919;56.194;95.716;2022-07-23T00:16:40;97514.44;;;22.26;66.68
70458;BME280;57919;56.194;95.716;2022-07-23T00:26:42;97518.94;;;22.48;64.42
70458;BME280;57919;56.194;95.716;2022-07-23T00:36:44;97541.03;;;23.31;61.63
70458;BME280;57919;56.194;95.716;2022-07-23T00:46:55;97546.47;;;24.28;58.96
70458;BME280;57919;56.194;95.716;2022-07-23T00:56:58;97553.28;;;24.95;56.13
70458;BME280;57919;56.194;95.716;2022-07-23T01:07:00;97558.84;;;25.57;54.66
70458;BME280;57919;56.194;95.716;2022-07-23T01:17:04;97554.31;;;26.34;52.20
70458;BME280;57919;56.194;95.716;2022-07-23T01:27:06;97548.75;;;26.59;51.22
70458;BME280;57919;56.194;95.716;2022-07-23T01:37:12;97555.38;;;26.68;50.66
70458;BME280;57919;56.194;95.716;2022-07-23T01:47:15;97558.56;;;27.31;48.04
70458;BME280;57919;56.194;95.716;2022-07-23T01:57:17;97542.44;;;28.66;46.16
70458;BME280;57919;56.194;95.716;2022-07-23T02:07:20;97549.75;;;29.81;43.63
70458;BME280;57919;56.194;95.716;2022-07-23T02:17:22;97545.78;;;30.58;42.81
70458;BME280;57919;56.194;95.716;2022-07-23T02:27:24;97542.84;;;31.28;40.58
70458;BME280;57919;56.194;95.716;2022-07-23T02:37:28;97538.16;;;31.78;38.68
70458;BME280;57919;56.194;95.716;2022-07-23T02:47:30;97534.06;;;31.98;38.02
70458;BME280;57919;56.194;95.716;2022-07-23T02:57:35;97541.03;;;33.21;36.40
70458;BME280;57919;56.194;95.716;2022-07-23T03:07:37;97543.16;;;32.84;36.22
70458;BME280;57919;56.194;95.716;2022-07-23T03:17:40;97526.59;;;32.07;37.36
70458;BME280;57919;56.194;95.716;2022-07-23T03:27:42;97530.34;;;32.02;36.95
70458;BME280;57919;56.194;95.716;2022-07-23T03:37:45;97527.69;;;31.84;37.35
70458;BME280;57919;56.194;95.716;2022-07-23T03:47:47;97537.53;;;32.17;35.26
70458;BME280;57919;56.194;95.716;2022-07-23T03:57:49;97525.06;;;32.90;34.13
70458;BME280;57919;56.194;95.716;2022-07-23T04:07:52;97521.78;;;33.28;32.70
70458;BME280;57919;56.194;95.716;2022-07-23T04:17:54;97520.34;;;32.99;32.16
70458;BME280;57919;56.194;95.716;2022-07-23T04:27:58;97508.50;;;30.67;36.03
70458;BME280;57919;56.194;95.716;2022-07-23T04:38:00;97505.81;;;29.31;38.19
70458;BME280;57919;56.194;95.716;2022-07-23T04:48:04;97499.91;;;28.89;39.54
70458;BME280;57919;56.194;95.716;2022-07-23T04:58:06;97505.69;;;28.01;39.88
70458;BME280;57919;56.194;95.716;2022-07-23T05:08:08;97505.28;;;27.79;40.29
70458;BME280;57919;56.194;95.716;2022-07-23T05:18:13;97496.38;;;27.27;40.96
70458;BME280;57919;56.194;95.716;2022-07-23T05:28:16;97511.97;;;27.18;41.01
70458;BME280;57919;56.194;95.716;2022-07-23T05:38:18;97514.34;;;27.45;40.00
70458;BME280;57919;56.194;95.716;2022-07-23T05:48:21;97511.84;;;27.44;40.39
70458;BME280;57919;56.194;95.716;2022-07-23T05:58:43;97491.25;;;27.99;39.81
70458;BME280;57919;56.194;95.716;2022-07-23T06:08:45;97488.25;;;28.29;39.41
70458;BME280;57919;56.194;95.716;2022-07-23T06:18:47;97521.50;;;26.77;41.75
70458;BME280;57919;56.194;95.716;2022-07-23T06:28:50;97521.19;;;27.03;40.79
70458;BME280;57919;56.194;95.716;2022-07-23T06:38:52;97546.28;;;25.29;43.42
70458;BME280;57919;56.194;95.716;2022-07-23T06:48:54;97558.09;;;23.06;48.85
70458;BME280;57919;56.194;95.716;2022-07-23T06:58:56;97572.88;;;21.66;53.26
70458;BME280;57919;56.194;95.716;2022-07-23T07:08:58;97556.22;;;21.44;55.18
70458;BME280;57919;56.194;95.716;2022-07-23T07:19:00;97543.16;;;22.13;54.72
70458;BME280;57919;56.194;95.716;2022-07-23T07:29:02;97574.84;;;23.21;54.50
70458;BME280;57919;56.194;95.716;2022-07-23T07:39:05;97568.31;;;24.03;52.85
70458;BME280;57919;56.194;95.716;2022-07-23T07:49:08;97569.03;;;25.41;50.62
70458;BME280;57919;56.194;95.716;2022-07-23T07:59:10;97580.66;;;26.36;48.72
70458;BME280;57919;56.194;95.716;2022-07-23T08:09:13;97561.78;;;26.49;48.12
70458;BME280;57919;56.194;95.716;2022-07-23T08:19:15;97548.13;;;26.93;46.54
70458;BME280;57919;56.194;95.716;2022-07-23T08:29:17;97556.72;;;27.76;43.03
70458;BME280;57919;56.194;95.716;2022-07-23T08:39:19;97551.75;;;28.12;42.50
70458;BME280;57919;56.194;95.716;2022-07-23T08:49:22;97544.66;;;27.37;43.19
70458;BME280;57919;56.194;95.716;2022-07-23T08:59:24;97569.81;;;26.45;44.94
70458;BME280;57919;56.194;95.716;2022-07-23T09:09:28;97602.91;;;24.69;47.55
70458;BME280;57919;56.194;95.716;2022-07-23T09:19:32;97627.31;;;21.64;56.03
70458;BME280;57919;56.194;95.716;2022-07-23T09:29:34;97635.56;;;20.53;59.96
70458;BME280;57919;56.194;95.716;2022-07-23T09:39:36;97612.88;;;21.56;60.37
70458;BME280;57919;56.194;95.716;2022-07-23T09:49:38;97625.88;;;23.02;56.27
70458;BME280;57919;56.194;95.716;2022-07-23T09:59:42;97619.53;;;23.01;56.24
70458;BME280;57919;56.194;95.716;2022-07-23T10:09:47;97625.09;;;22.84;56.95
70458;BME280;57919;56.194;95.716;2022-07-23T10:20:27;97626.63;;;23.36;55.73
70458;BME280;57919;56.194;95.716;2022-07-23T10:40:57;97625.28;;;23.38;55.08
70458;BME280;57919;56.194;95.716;2022-07-23T10:51:15;97616.59;;;23.08;55.99
70458;BME280;57919;56.194;95.716;2022-07-23T11:01:34;97623.16;;;22.68;56.72
70458;BME280;57919;56.194;95.716;2022-07-23T11:11:39;97630.56;;;22.17;57.88
70458;BME280;57919;56.194;95.716;2022-07-23T11:21:42;97628.00;;;21.99;58.15
70458;BME280;57919;56.194;95.716;2022-07-23T11:31:59;97642.19;;;22.19;57.84
70458;BME280;57919;56.194;95.716;2022-07-23T11:42:03;97651.69;;;22.00;57.93
70458;BME280;57919;56.194;95.716;2022-07-23T11:52:11;97645.66;;;21.58;57.47
70458;BME280;57919;56.194;95.716;2022-07-23T12:02:13;97648.81;;;21.38;57.48
70458;BME280;57919;56.194;95.716;2022-07-23T12:12:15;97652.34;;;21.62;56.97
70458;BME280;57919;56.194;95.716;2022-07-23T12:22:19;97661.16;;;21.76;56.87
70458;BME280;57919;56.194;95.716;2022-07-23T12:32:27;97657.84;;;21.62;56.76
70458;BME280;57919;56.194;95.716;2022-07-23T12:42:41;97668.06;;;21.38;57.38
70458;BME280;57919;56.194;95.716;2022-07-23T12:52:44;97679.56;;;21.12;57.64
70458;BME280;57919;56.194;95.716;2022-07-23T13:02:46;97694.03;;;20.84;57.67
70458;BME280;57919;56.194;95.716;2022-07-23T13:12:48;97692.44;;;20.53;58.26
70458;BME280;57919;56.194;95.716;2022-07-23T13:22:50;97705.81;;;20.19;58.78
70458;BME280;57919;56.194;95.716;2022-07-23T13:32:52;97700.03;;;19.79;59.24
70458;BME280;57919;56.194;95.716;2022-07-23T13:42:54;97698.53;;;19.47;60.00
70458;BME280;57919;56.194;95.716;2022-07-23T13:52:56;97708.78;;;19.15;60.58
70458;BME280;57919;56.194;95.716;2022-07-23T14:02:59;97708.22;;;18.88;61.38
70458;BME280;57919;56.194;95.716;2022-07-23T14:13:02;97716.44;;;18.63;62.03
70458;BME280;57919;56.194;95.716;2022-07-23T14:23:05;97734.72;;;18.69;62.35
70458;BME280;57919;56.194;95.716;2022-07-23T14:33:07;97736.22;;;18.65;62.53
70458;BME280;57919;56.194;95.716;2022-07-23T14:43:09;97741.31;;;18.61;63.01
70458;BME280;57919;56.194;95.716;2022-07-23T14:53:11;97761.53;;;18.60;63.23
70458;BME280;57919;56.194;95.716;2022-07-23T15:03:13;97767.66;;;18.56;62.76
70458;BME280;57919;56.194;95.716;2022-07-23T15:13:15;97765.16;;;18.54;62.18
70458;BME280;57919;56.194;95.716;2022-07-23T15:23:17;97778.00;;;18.54;61.93
70458;BME280;57919;56.194;95.716;2022-07-23T15:33:20;97784.72;;;18.58;61.82
70458;BME280;57919;56.194;95.716;2022-07-23T15:43:23;97792.63;;;18.41;61.96
70458;BME280;57919;56.194;95.716;2022-07-23T15:53:25;97794.41;;;18.22;62.15
70458;BME280;57919;56.194;95.716;2022-07-23T16:03:27;97784.44;;;17.96;62.81
70458;BME280;57919;56.194;95.716;2022-07-23T16:13:29;97806.41;;;17.77;63.32
70458;BME280;57919;56.194;95.716;2022-07-23T16:23:31;97814.66;;;17.43;64.09
70458;BME280;57919;56.194;95.716;2022-07-23T16:33:34;97807.34;;;17.04;64.82
70458;BME280;57919;56.194;95.716;2022-07-23T16:43:36;97816.81;;;16.89;65.49
70458;BME280;57919;56.194;95.716;2022-07-23T16:53:39;97818.69;;;16.68;66.11
70458;BME280;57919;56.194;95.716;2022-07-23T17:03:40;97819.66;;;16.41;66.50
70458;BME280;57919;56.194;95.716;2022-07-23T17:13:43;97838.09;;;16.26;67.21
70458;BME280;57919;56.194;95.716;2022-07-23T17:23:45;97831.53;;;16.07;67.72
70458;BME280;57919;56.194;95.716;2022-07-23T17:33:47;97829.72;;;15.79;67.96
70458;BME280;57919;56.194;95.716;2022-07-23T17:43:49;97836.75;;;15.61;68.62
70458;BME280;57919;56.194;95.716;2022-07-23T17:53:51;97837.53;;;15.55;69.38
70458;BME280;57919;56.194;95.716;2022-07-23T18:03:53;97853.13;;;15.61;69.70
70458;BME280;57919;56.194;95.716;2022-07-23T18:13:55;97846.63;;;15.62;69.67
70458;BME280;57919;56.194;95.716;2022-07-23T18:23:58;97851.81;;;15.57;70.17
70458;BME280;57919;56.194;95.716;2022-07-23T18:34:00;97856.56;;;15.48;70.13
70458;BME280;57919;56.194;95.716;2022-07-23T18:44:03;97861.63;;;15.23;70.53
70458;BME280;57919;56.194;95.716;2022-07-23T18:54:05;97862.91;;;14.99;70.84
70458;BME280;57919;56.194;95.716;2022-07-23T19:04:11;97857.31;;;14.58;71.70
70458;BME280;57919;56.194;95.716;2022-07-23T19:14:14;97873.28;;;14.46;71.97
70458;BME280;57919;56.194;95.716;2022-07-23T19:24:16;97861.13;;;14.28;72.15
70458;BME280;57919;56.194;95.716;2022-07-23T19:34:18;97861.34;;;14.11;72.83
70458;BME280;57919;56.194;95.716;2022-07-23T19:44:20;97853.59;;;13.94;73.16
70458;BME280;57919;56.194;95.716;2022-07-23T19:54:22;97857.09;;;13.87;73.55
70458;BME280;57919;56.194;95.716;2022-07-23T20:04:24;97866.28;;;13.72;73.72
70458;BME280;57919;56.194;95.716;2022-07-23T20:14:26;97864.59;;;13.56;73.78
70458;BME280;57919;56.194;95.716;2022-07-23T20:24:28;97875.09;;;13.30;74.16
70458;BME280;57919;56.194;95.716;2022-07-23T20:34:30;97882.41;;;13.06;74.39
70458;BME280;57919;56.194;95.716;2022-07-23T20:44:32;97877.13;;;12.90;74.72
70458;BME280;57919;56.194;95.716;2022-07-23T20:54:34;97879.53;;;12.85;75.21
70458;BME280;57919;56.194;95.716;2022-07-23T21:04:37;97880.75;;;12.82;75.33
70458;BME280;57919;56.194;95.716;2022-07-23T21:14:38;97899.09;;;12.80;75.60
70458;BME280;57919;56.194;95.716;2022-07-23T21:24:41;97889.03;;;12.66;76.01
70458;BME280;57919;56.194;95.716;2022-07-23T21:34:42;97888.09;;;12.28;76.75
70458;BME280;57919;56.194;95.716;2022-07-23T21:44:44;97898.50;;;12.16;77.09
70458;BME280;57919;56.194;95.716;2022-07-23T21:54:46;97913.03;;;12.23;77.20
70458;BME280;57919;56.194;95.716;2022-07-23T22:04:48;97929.06;;;12.33;77.33
70458;BME280;57919;56.194;95.716;2022-07-23T22:14:50;97917.03;;;12.36;78.14
70458;BME280;57919;56.194;95.716;2022-07-23T22:24:52;97927.34;;;12.40;78.34
70458;BME280;57919;56.194;95.716;2022-07-23T22:34:54;97936.28;;;12.49;78.58
70458;BME280;57919;56.194;95.716;2022-07-23T22:44:56;97944.53;;;12.55;78.59
70458;BME280;57919;56.194;95.716;2022-07-23T22:54:58;97947.44;;;12.77;78.79
70458;BME280;57919;56.194;95.716;2022-07-23T23:05:00;97957.94;;;13.03;79.23
70458;BME280;57919;56.194;95.716;2022-07-23T23:15:04;97957.66;;;13.58;78.80
70458;BME280;57919;56.194;95.716;2022-07-23T23:25:07;97954.63;;;14.41;77.26
70458;BME280;57919;56.194;95.716;2022-07-23T23:35:09;97954.31;;;15.79;74.62
70458;BME280;57919;56.194;95.716;2022-07-23T23:45:11;97961.31;;;15.88;73.78
70458;BME280;57919;56.194;95.716;2022-07-23T23:55:13;97964.63;;;15.34;74.91
